Time,TemperatureF,DewpointF,PressureIn,WindDirection,WindDirectionDegrees,WindSpeedMPH,WindSpeedGustMPH,Humidity,HourlyPrecipIn,Conditions,Clouds,dailyrainin,SoftwareType,DateUTC
2013-03-12 00:02:00,51.1,44.8,30.00,WSW,248,0.0,2.7,79,0.00,,,0.00,VWS V14.01,2013-03-12 07:02:00,
2013-03-12 00:07:00,51.1,44.8,30.00,WSW,248,0.0,2.2,79,0.00,,,0.00,VWS V14.01,2013-03-12 07:07:00,
2013-03-12 00:12:00,51.3,45.0,30.00,SSE,158,2.2,2.2,79,0.00,,,0.00,VWS V14.01,2013-03-12 07:12:00,
2013-03-12 00:17:00,51.3,45.0,30.00,SSE,158,0.0,0.0,79,0.00,,,0.00,VWS V14.01,2013-03-12 07:17:00,
2013-03-12 00:22:00,51.3,45.0,30.00,SW,225,0.0,0.0,79,0.00,,,0.00,VWS V14.01,2013-03-12 07:22:00,
2013-03-12 00:27:00,51.3,45.0,30.00,SW,225,4.5,4.9,79,0.00,,,0.00,VWS V14.01,2013-03-12 07:27:00,
2013-03-12 00:33:00,51.3,45.0,30.00,SW,225,0.0,0.0,79,0.00,,,0.00,VWS V14.01,2013-03-12 07:33:00,
2013-03-12 00:38:00,51.3,45.0,30.00,SSW,202,2.7,2.7,79,0.00,,,0.00,VWS V14.01,2013-03-12 07:38:00,
2013-03-12 00:43:00,51.3,45.0,30.00,SSW,202,4.0,5.4,79,0.00,,,0.00,VWS V14.01,2013-03-12 07:43:00,
2013-03-12 00:48:00,51.1,44.8,30.03,SSW,202,0.0,0.0,79,0.00,,,0.00,VWS V14.01,2013-03-12 07:48:00,
2013-03-12 00:53:00,50.9,44.6,30.03,ESE,112,5.8,5.8,79,0.00,,,0.00,VWS V14.01,2013-03-12 07:53:00,
2013-03-12 00:58:00,50.7,44.8,30.03,NNW,338,2.2,2.7,80,0.00,,,0.00,VWS V14.01,2013-03-12 07:58:00,
2013-03-12 01:04:00,50.7,44.8,30.03,SSW,202,3.1,3.1,80,0.00,,,0.00,VWS V14.01,2013-03-12 08:04:00,
2013-03-12 01:09:00,50.7,44.8,30.03,SSE,158,2.2,3.1,80,0.00,,,0.00,VWS V14.01,2013-03-12 08:09:00,
2013-03-12 01:14:00,50.7,45.1,30.03,SSW,202,3.1,3.1,81,0.00,,,0.00,VWS V14.01,2013-03-12 08:14:00,
2013-03-12 01:19:00,50.7,45.1,30.00,NW,315,0.0,2.2,81,0.00,,,0.00,VWS V14.01,2013-03-12 08:19:00,
2013-03-12 01:24:00,50.5,45.3,30.00,SE,135,2.7,4.0,82,0.00,,,0.00,VWS V14.01,2013-03-12 08:24:00,
2013-03-12 01:29:00,50.5,45.3,30.00,SSW,202,0.0,0.0,82,0.00,,,0.00,VWS V14.01,2013-03-12 08:29:00,
2013-03-12 01:34:00,50.5,45.3,30.03,SSW,202,2.2,3.6,82,0.00,,,0.00,VWS V14.01,2013-03-12 08:34:00,
2013-03-12 01:40:00,50.5,45.3,30.03,SSW,202,2.2,3.6,82,0.00,,,0.00,VWS V14.01,2013-03-12 08:40:00,
2013-03-12 01:45:00,50.4,45.1,30.03,SSE,158,0.0,0.0,82,0.00,,,0.00,VWS V14.01,2013-03-12 08:45:00,
2013-03-12 01:50:00,50.4,45.1,30.03,SSW,202,0.0,0.0,82,0.00,,,0.00,VWS V14.01,2013-03-12 08:50:00,
2013-03-12 01:55:00,50.4,45.1,30.03,SSW,202,0.0,0.0,82,0.00,,,0.00,VWS V14.01,2013-03-12 08:55:00,
2013-03-12 02:01:00,50.5,45.6,30.03,SW,225,0.0,2.2,83,0.00,,,0.00,VWS V14.01,2013-03-12 09:01:00,
2013-03-12 02:06:00,50.5,45.6,30.00,SSW,202,0.0,3.1,83,0.00,,,0.00,VWS V14.01,2013-03-12 09:06:00,
2013-03-12 02:11:00,50.5,45.6,30.00,SW,225,0.0,0.0,83,0.00,,,0.00,VWS V14.01,2013-03-12 09:11:00,
2013-03-12 02:16:00,50.5,45.6,30.00,South,180,0.0,0.0,83,0.00,,,0.00,VWS V14.01,2013-03-12 09:16:00,
2013-03-12 02:21:00,50.5,45.6,30.00,SSW,202,0.0,0.0,83,0.00,,,0.00,VWS V14.01,2013-03-12 09:21:00,
2013-03-12 02:27:00,50.7,45.8,30.00,SSW,202,0.0,0.0,83,0.00,,,0.00,VWS V14.01,2013-03-12 09:27:00,
2013-03-12 02:32:00,50.9,45.6,30.00,SSE,158,0.0,2.2,82,0.00,,,0.00,VWS V14.01,2013-03-12 09:32:00,
2013-03-12 02:37:00,50.9,45.6,30.00,SSE,158,0.0,0.0,82,0.00,,,0.00,VWS V14.01,2013-03-12 09:37:00,
2013-03-12 02:42:00,50.9,45.6,30.00,East,90,0.0,0.0,82,0.00,,,0.00,VWS V14.01,2013-03-12 09:42:00,
2013-03-12 02:48:00,50.9,45.6,30.00,SSW,202,0.0,0.0,82,0.00,,,0.00,VWS V14.01,2013-03-12 09:48:00,
2013-03-12 02:53:00,50.7,45.1,30.00,SSW,202,2.2,2.7,81,0.00,,,0.00,VWS V14.01,2013-03-12 09:53:00,
2013-03-12 02:58:00,50.7,45.1,30.00,SSW,202,0.0,3.6,81,0.00,,,0.00,VWS V14.01,2013-03-12 09:58:00,
2013-03-12 03:03:00,50.7,45.1,30.03,ESE,112,2.2,2.2,81,0.00,,,0.00,VWS V14.01,2013-03-12 10:03:00,
2013-03-12 03:08:00,50.7,45.1,30.03,ESE,112,0.0,2.7,81,0.00,,,0.00,VWS V14.01,2013-03-12 10:08:00,
2013-03-12 03:13:00,50.5,44.9,30.03,SSW,202,0.0,4.0,81,0.00,,,0.00,VWS V14.01,2013-03-12 10:13:00,
2013-03-12 03:18:00,50.4,44.8,30.00,SSW,202,3.1,3.1,81,0.00,,,0.00,VWS V14.01,2013-03-12 10:18:00,
2013-03-12 03:23:00,50.2,44.6,30.00,SW,225,0.0,2.2,81,0.00,,,0.00,VWS V14.01,2013-03-12 10:23:00,
2013-03-12 03:28:00,50.2,44.6,30.00,SSW,202,3.6,3.6,81,0.00,,,0.00,VWS V14.01,2013-03-12 10:28:00,
2013-03-12 03:33:00,50.2,44.6,30.00,South,180,0.0,0.0,81,0.00,,,0.00,VWS V14.01,2013-03-12 10:33:00,
2013-03-12 03:38:00,50.2,44.9,30.00,South,180,2.7,2.7,82,0.00,,,0.00,VWS V14.01,2013-03-12 10:38:00,
2013-03-12 03:44:00,50.2,44.9,30.00,South,180,2.2,2.2,82,0.00,,,0.00,VWS V14.01,2013-03-12 10:44:00,
2013-03-12 03:49:00,50.0,44.7,30.00,SSW,202,3.1,3.6,82,0.00,,,0.00,VWS V14.01,2013-03-12 10:49:00,
2013-03-12 03:54:00,50.0,44.7,30.00,SSW,202,0.0,2.7,82,0.00,,,0.00,VWS V14.01,2013-03-12 10:54:00,
2013-03-12 03:59:00,50.0,44.7,30.00,SSE,158,0.0,0.0,82,0.00,,,0.00,VWS V14.01,2013-03-12 10:59:00,
2013-03-12 04:04:00,50.0,45.0,30.00,SSW,202,0.0,0.0,83,0.00,,,0.00,VWS V14.01,2013-03-12 11:04:00,
2013-03-12 04:10:00,50.2,45.2,30.00,SSW,202,0.0,0.0,83,0.00,,,0.00,VWS V14.01,2013-03-12 11:10:00,
2013-03-12 04:15:00,50.0,45.0,30.00,South,180,0.0,2.2,83,0.00,,,0.00,VWS V14.01,2013-03-12 11:15:00,
2013-03-12 04:20:00,50.2,45.2,30.00,NNE,22,0.0,0.0,83,0.00,,,0.00,VWS V14.01,2013-03-12 11:20:00,
2013-03-12 04:25:00,50.2,45.2,30.00,SSW,202,0.0,0.0,83,0.00,,,0.00,VWS V14.01,2013-03-12 11:25:00,
2013-03-12 04:31:00,50.2,45.2,30.00,ESE,112,0.0,0.0,83,0.00,,,0.00,VWS V14.01,2013-03-12 11:31:00,
2013-03-12 04:36:00,50.2,45.2,30.00,SE,135,0.0,0.0,83,0.00,,,0.00,VWS V14.01,2013-03-12 11:36:00,
2013-03-12 04:41:00,50.2,45.2,30.00,ESE,112,0.0,0.0,83,0.00,,,0.00,VWS V14.01,2013-03-12 11:41:00,
2013-03-12 04:46:00,50.2,45.2,30.00,ESE,112,0.0,2.7,83,0.00,,,0.00,VWS V14.01,2013-03-12 11:46:00,
2013-03-12 04:51:00,50.2,45.2,30.00,ESE,112,0.0,0.0,83,0.00,,,0.00,VWS V14.01,2013-03-12 11:51:00,
2013-03-12 04:57:00,50.0,45.0,30.00,ESE,112,0.0,0.0,83,0.00,,,0.00,VWS V14.01,2013-03-12 11:57:00,
2013-03-12 05:02:00,50.0,45.0,30.00,East,90,0.0,0.0,83,0.00,,,0.00,VWS V14.01,2013-03-12 12:02:00,
2013-03-12 05:07:00,50.0,45.0,30.00,SSW,202,0.0,0.0,83,0.00,,,0.00,VWS V14.01,2013-03-12 12:07:00,
2013-03-12 05:12:00,50.0,45.0,30.00,South,180,0.0,0.0,83,0.00,,,0.00,VWS V14.01,2013-03-12 12:12:00,
2013-03-12 05:18:00,50.0,45.0,30.00,SSW,202,0.0,0.0,83,0.00,,,0.00,VWS V14.01,2013-03-12 12:18:00,
2013-03-12 05:23:00,50.2,45.2,30.00,SSW,202,2.2,2.2,83,0.00,,,0.00,VWS V14.01,2013-03-12 12:23:00,
2013-03-12 05:28:00,50.2,45.2,30.00,SSW,202,3.6,4.5,83,0.00,,,0.00,VWS V14.01,2013-03-12 12:28:00,
2013-03-12 05:33:00,50.0,45.0,30.00,ESE,112,0.0,3.1,83,0.00,,,0.00,VWS V14.01,2013-03-12 12:33:00,
2013-03-12 05:38:00,50.0,45.0,30.00,ESE,112,2.7,3.1,83,0.00,,,0.00,VWS V14.01,2013-03-12 12:38:00,
2013-03-12 05:44:00,50.0,44.7,30.00,South,180,0.0,2.7,82,0.00,,,0.00,VWS V14.01,2013-03-12 12:44:00,
2013-03-12 05:49:00,50.0,44.7,30.00,SSW,202,0.0,0.0,82,0.00,,,0.00,VWS V14.01,2013-03-12 12:49:00,
2013-03-12 05:54:00,50.0,44.7,30.00,East,90,2.2,2.2,82,0.00,,,0.00,VWS V14.01,2013-03-12 12:54:00,
2013-03-12 05:59:00,50.2,44.9,30.00,ENE,68,0.0,3.1,82,0.00,,,0.00,VWS V14.01,2013-03-12 12:59:00,
2013-03-12 06:04:00,50.0,44.7,30.00,East,90,0.0,0.0,82,0.00,,,0.00,VWS V14.01,2013-03-12 13:04:00,
2013-03-12 06:09:00,50.0,44.7,30.00,North,0,2.7,2.7,82,0.00,,,0.00,VWS V14.01,2013-03-12 13:09:00,
2013-03-12 06:14:00,49.8,44.5,30.00,NNE,22,0.0,2.2,82,0.00,,,0.00,VWS V14.01,2013-03-12 13:14:00,
2013-03-12 06:19:00,49.8,44.5,30.00,East,90,0.0,0.0,82,0.00,,,0.00,VWS V14.01,2013-03-12 13:19:00,
2013-03-12 06:24:00,49.6,44.7,30.00,North,0,0.0,0.0,83,0.00,,,0.00,VWS V14.01,2013-03-12 13:24:00,
2013-03-12 06:29:00,49.5,44.5,30.00,NNW,338,0.0,0.0,83,0.00,,,0.00,VWS V14.01,2013-03-12 13:29:00,
2013-03-12 06:34:00,49.5,44.5,30.00,East,90,0.0,0.0,83,0.00,,,0.00,VWS V14.01,2013-03-12 13:34:00,
2013-03-12 06:39:00,49.6,44.7,30.00,NNE,22,2.2,2.2,83,0.00,,,0.00,VWS V14.01,2013-03-12 13:39:00,
2013-03-12 06:44:00,49.6,45.0,30.00,ESE,112,0.0,0.0,84,0.00,,,0.00,VWS V14.01,2013-03-12 13:44:00,
2013-03-12 06:50:00,49.8,45.2,30.00,North,0,2.2,2.2,84,0.00,,,0.00,VWS V14.01,2013-03-12 13:50:00,
2013-03-12 06:55:00,49.6,45.0,30.00,North,0,3.6,3.6,84,0.00,,,0.00,VWS V14.01,2013-03-12 13:55:00,
2013-03-12 07:00:00,49.6,45.0,30.00,NNW,338,4.0,4.0,84,0.00,,,0.00,VWS V14.01,2013-03-12 14:00:00,
2013-03-12 07:05:00,49.6,45.0,30.00,North,0,3.6,4.0,84,0.00,,,0.00,VWS V14.01,2013-03-12 14:05:00,
2013-03-12 07:10:00,49.6,45.0,30.00,North,0,2.7,3.1,84,0.00,,,0.00,VWS V14.01,2013-03-12 14:10:00,
2013-03-12 07:16:00,49.6,45.0,30.00,NNW,338,2.7,3.6,84,0.00,,,0.00,VWS V14.01,2013-03-12 14:16:00,
2013-03-12 07:21:00,49.6,45.0,30.00,North,0,2.2,4.0,84,0.00,,,0.00,VWS V14.01,2013-03-12 14:21:00,
2013-03-12 07:26:00,49.5,44.8,30.00,North,0,2.2,2.7,84,0.00,,,0.00,VWS V14.01,2013-03-12 14:26:00,
2013-03-12 07:31:00,49.5,44.8,30.00,NNW,338,2.7,3.6,84,0.00,,,0.00,VWS V14.01,2013-03-12 14:31:00,
2013-03-12 07:37:00,49.3,44.7,30.00,NNE,22,2.7,2.7,84,0.00,,,0.00,VWS V14.01,2013-03-12 14:37:00,
2013-03-12 07:42:00,49.3,44.7,30.00,NNE,22,3.1,3.1,84,0.00,,,0.00,VWS V14.01,2013-03-12 14:42:00,
2013-03-12 07:47:00,49.5,44.8,30.00,NNE,22,3.1,4.0,84,0.00,,,0.00,VWS V14.01,2013-03-12 14:47:00,
2013-03-12 07:52:00,49.3,44.7,30.00,NNW,338,2.7,3.6,84,0.00,,,0.00,VWS V14.01,2013-03-12 14:52:00,
2013-03-12 07:58:00,49.3,44.7,30.00,NE,45,2.7,3.1,84,0.00,,,0.00,VWS V14.01,2013-03-12 14:58:00,
2013-03-12 08:03:00,49.6,45.3,30.00,NNW,338,2.2,2.7,85,0.00,,,0.00,VWS V14.01,2013-03-12 15:03:00,
2013-03-12 08:08:00,49.6,45.0,30.00,NNW,338,3.6,3.6,84,0.00,,,0.00,VWS V14.01,2013-03-12 15:08:00,
2013-03-12 08:14:00,49.6,45.0,30.00,NNW,338,3.6,3.6,84,0.00,,,0.00,VWS V14.01,2013-03-12 15:14:00,
2013-03-12 08:19:00,49.6,45.0,30.03,North,0,2.2,3.6,84,0.00,,,0.00,VWS V14.01,2013-03-12 15:19:00,
2013-03-12 08:24:00,49.8,45.2,30.03,NNW,338,0.0,2.2,84,0.00,,,0.00,VWS V14.01,2013-03-12 15:24:00,
2013-03-12 08:29:00,49.8,45.2,30.03,NW,315,0.0,0.0,84,0.00,,,0.00,VWS V14.01,2013-03-12 15:29:00,
2013-03-12 08:34:00,50.0,45.0,30.03,NNW,338,2.7,2.7,83,0.00,,,0.00,VWS V14.01,2013-03-12 15:34:00,
2013-03-12 08:40:00,50.0,45.0,30.03,NNW,338,4.0,4.0,83,0.00,,,0.00,VWS V14.01,2013-03-12 15:40:00,
2013-03-12 08:45:00,50.2,44.9,30.03,NNW,338,2.2,2.2,82,0.00,,,0.00,VWS V14.01,2013-03-12 15:45:00,
2013-03-12 08:50:00,50.2,44.9,30.03,North,0,3.1,3.6,82,0.00,,,0.00,VWS V14.01,2013-03-12 15:50:00,
2013-03-12 08:55:00,50.2,44.9,30.03,NNW,338,2.7,3.6,82,0.00,,,0.00,VWS V14.01,2013-03-12 15:55:00,
2013-03-12 09:00:00,50.5,45.3,30.03,NNE,22,3.6,3.6,82,0.00,,,0.00,VWS V14.01,2013-03-12 16:00:00,
2013-03-12 09:05:00,50.9,45.3,30.03,NNW,338,4.9,4.9,81,0.00,,,0.00,VWS V14.01,2013-03-12 16:05:00,
2013-03-12 09:11:00,50.7,44.8,30.03,NNW,338,4.9,4.9,80,0.00,,,0.00,VWS V14.01,2013-03-12 16:11:00,
2013-03-12 09:16:00,50.4,44.4,30.03,NNW,338,5.4,5.8,80,0.00,,,0.00,VWS V14.01,2013-03-12 16:16:00,
2013-03-12 09:21:00,50.2,44.6,30.03,NNW,338,4.9,5.8,81,0.00,,,0.00,VWS V14.01,2013-03-12 16:21:00,
2013-03-12 09:27:00,50.0,44.7,30.03,NW,315,5.8,6.3,82,0.00,,,0.00,VWS V14.01,2013-03-12 16:27:00,
2013-03-12 09:32:00,50.0,45.0,30.03,NNE,22,3.1,4.9,83,0.00,,,0.00,VWS V14.01,2013-03-12 16:32:00,
2013-03-12 09:37:00,50.0,45.4,30.03,NNW,338,4.0,4.9,84,0.00,,,0.00,VWS V14.01,2013-03-12 16:37:00,
2013-03-12 09:42:00,50.0,45.4,30.03,North,0,4.0,4.0,84,0.00,,,0.00,VWS V14.01,2013-03-12 16:42:00,
2013-03-12 09:48:00,50.2,45.5,30.03,North,0,3.1,4.0,84,0.00,,,0.00,VWS V14.01,2013-03-12 16:48:00,
2013-03-12 09:53:00,50.2,45.5,30.03,North,0,2.2,3.1,84,0.00,,,0.00,VWS V14.01,2013-03-12 16:53:00,
2013-03-12 09:58:00,50.5,45.9,30.03,NNW,338,3.6,3.6,84,0.00,,,0.00,VWS V14.01,2013-03-12 16:58:00,
2013-03-12 10:03:00,50.4,45.4,30.03,North,0,0.0,2.7,83,0.00,,,0.00,VWS V14.01,2013-03-12 17:03:00,
2013-03-12 10:08:00,50.4,45.4,30.03,NNW,338,4.9,4.9,83,0.00,,,0.00,VWS V14.01,2013-03-12 17:08:00,
2013-03-12 10:14:00,50.4,45.4,30.03,NNW,338,5.4,5.4,83,0.00,,,0.00,VWS V14.01,2013-03-12 17:14:00,
2013-03-12 10:19:00,50.2,45.2,30.06,North,0,4.9,5.8,83,0.00,,,0.00,VWS V14.01,2013-03-12 17:19:00,
2013-03-12 10:24:00,50.4,45.7,30.06,NNW,338,2.7,4.0,84,0.00,,,0.00,VWS V14.01,2013-03-12 17:24:00,
2013-03-12 10:29:00,50.7,46.1,30.06,NW,315,0.0,2.7,84,0.00,,,0.00,VWS V14.01,2013-03-12 17:29:00,
2013-03-12 10:35:00,50.9,45.9,30.06,WNW,292,3.6,4.9,83,0.00,,,0.00,VWS V14.01,2013-03-12 17:35:00,
2013-03-12 10:40:00,50.9,45.6,30.06,North,0,3.1,3.1,82,0.00,,,0.00,VWS V14.01,2013-03-12 17:40:00,
2013-03-12 10:45:00,51.1,45.8,30.06,NNE,22,3.1,3.1,82,0.00,,,0.00,VWS V14.01,2013-03-12 17:45:00,
2013-03-12 10:51:00,50.9,45.3,30.03,NNW,338,4.0,6.3,81,0.00,,,0.00,VWS V14.01,2013-03-12 17:51:00,
2013-03-12 10:56:00,50.5,45.3,30.03,North,0,4.0,5.4,82,0.00,,,0.00,VWS V14.01,2013-03-12 17:56:00,
2013-03-12 11:01:00,50.5,45.3,30.06,North,0,4.0,4.9,82,0.00,,,0.00,VWS V14.01,2013-03-12 18:01:00,
2013-03-12 11:06:00,50.5,45.6,30.06,NE,45,3.6,4.0,83,0.00,,,0.00,VWS V14.01,2013-03-12 18:06:00,
2013-03-12 11:11:00,50.7,46.1,30.06,NNW,338,4.0,5.8,84,0.00,,,0.00,VWS V14.01,2013-03-12 18:11:00,
2013-03-12 11:17:00,50.5,45.9,30.06,North,0,5.4,5.4,84,0.00,,,0.00,VWS V14.01,2013-03-12 18:17:00,
2013-03-12 11:22:00,50.7,46.1,30.06,NNW,338,2.7,4.0,84,0.00,,,0.00,VWS V14.01,2013-03-12 18:22:00,
2013-03-12 11:27:00,50.9,46.2,30.06,NNE,22,2.7,3.1,84,0.00,,,0.00,VWS V14.01,2013-03-12 18:27:00,
2013-03-12 11:32:00,51.1,46.1,30.06,North,0,3.6,4.0,83,0.00,,,0.00,VWS V14.01,2013-03-12 18:32:00,
2013-03-12 11:38:00,51.3,46.3,30.06,NNW,338,4.9,4.9,83,0.00,,,0.00,VWS V14.01,2013-03-12 18:38:00,
2013-03-12 11:43:00,51.3,46.0,30.06,North,0,3.6,4.0,82,0.00,,,0.00,VWS V14.01,2013-03-12 18:43:00,
2013-03-12 11:48:00,51.6,46.3,30.06,NNW,338,3.6,4.0,82,0.00,,,0.00,VWS V14.01,2013-03-12 18:48:00,
2013-03-12 11:53:00,51.6,46.0,30.06,North,0,2.2,3.6,81,0.00,,,0.00,VWS V14.01,2013-03-12 18:53:00,
2013-03-12 11:58:00,52.0,46.0,30.06,NW,315,3.1,5.4,80,0.00,,,0.00,VWS V14.01,2013-03-12 18:58:00,
2013-03-12 12:04:00,52.0,45.7,30.03,North,0,3.1,4.0,79,0.00,,,0.00,VWS V14.01,2013-03-12 19:04:00,
2013-03-12 12:09:00,52.2,45.5,30.03,NNW,338,2.7,2.7,78,0.00,,,0.00,VWS V14.01,2013-03-12 19:09:00,
2013-03-12 12:14:00,52.5,45.5,30.03,North,0,2.7,3.6,77,0.00,,,0.00,VWS V14.01,2013-03-12 19:14:00,
2013-03-12 12:19:00,53.1,45.7,30.03,NNW,338,3.1,3.1,76,0.00,,,0.00,VWS V14.01,2013-03-12 19:19:00,
2013-03-12 12:25:00,53.6,45.9,30.03,North,0,0.0,0.0,75,0.00,,,0.00,VWS V14.01,2013-03-12 19:25:00,
2013-03-12 12:30:00,54.3,45.9,30.03,NNE,22,2.7,3.6,73,0.00,,,0.00,VWS V14.01,2013-03-12 19:30:00,
2013-03-12 12:35:00,54.9,45.7,30.03,NW,315,2.7,2.7,71,0.00,,,0.00,VWS V14.01,2013-03-12 19:35:00,
2013-03-12 12:41:00,55.2,45.2,30.03,NW,315,2.2,2.7,69,0.00,,,0.00,VWS V14.01,2013-03-12 19:41:00,
2013-03-12 12:46:00,55.4,44.6,30.03,NNW,338,4.0,4.0,67,0.00,,,0.00,VWS V14.01,2013-03-12 19:46:00,
2013-03-12 12:51:00,55.4,44.2,30.03,NNE,22,3.1,4.9,66,0.00,,,0.00,VWS V14.01,2013-03-12 19:51:00,
2013-03-12 12:56:00,55.9,44.4,30.03,NNW,338,3.1,4.0,65,0.00,,,0.00,VWS V14.01,2013-03-12 19:56:00,
2013-03-12 13:02:00,56.1,44.5,30.03,NNW,338,2.7,4.0,65,0.00,,,0.00,VWS V14.01,2013-03-12 20:02:00,
2013-03-12 13:07:00,56.7,44.2,30.03,NNW,338,4.0,4.0,63,0.00,,,0.00,VWS V14.01,2013-03-12 20:07:00,
2013-03-12 13:12:00,57.0,44.6,30.03,NNW,338,3.6,3.6,63,0.00,,,0.00,VWS V14.01,2013-03-12 20:12:00,
2013-03-12 13:17:00,57.4,44.1,30.03,NNW,338,3.1,4.0,61,0.00,,,0.00,VWS V14.01,2013-03-12 20:17:00,
2013-03-12 13:23:00,57.7,43.5,30.03,NNE,22,4.5,4.5,59,0.00,,,0.00,VWS V14.01,2013-03-12 20:23:00,
2013-03-12 13:28:00,58.1,43.4,30.03,NNE,22,3.1,4.9,58,0.00,,,0.00,VWS V14.01,2013-03-12 20:28:00,
2013-03-12 13:33:00,59.5,43.8,30.03,NW,315,3.1,4.0,56,0.00,,,0.00,VWS V14.01,2013-03-12 20:33:00,
2013-03-12 13:38:00,61.5,43.8,30.03,North,0,4.0,4.9,52,0.00,,,0.00,VWS V14.01,2013-03-12 20:38:00,
2013-03-12 13:43:00,62.6,42.7,30.03,NE,45,4.9,4.9,48,0.00,,,0.00,VWS V14.01,2013-03-12 20:43:00,
2013-03-12 13:48:00,64.0,43.4,30.03,NNE,22,3.6,3.6,47,0.00,,,0.00,VWS V14.01,2013-03-12 20:48:00,
2013-03-12 13:53:00,65.3,43.4,30.03,NNE,22,3.1,3.1,45,0.00,,,0.00,VWS V14.01,2013-03-12 20:53:00,
2013-03-12 13:59:00,66.2,43.1,30.03,North,0,4.9,4.9,43,0.00,,,0.00,VWS V14.01,2013-03-12 20:59:00,
2013-03-12 14:04:00,67.5,43.6,30.03,NNE,22,3.6,4.0,42,0.00,,,0.00,VWS V14.01,2013-03-12 21:04:00,
2013-03-12 14:09:00,68.0,42.8,30.03,East,90,0.0,2.7,40,0.00,,,0.00,VWS V14.01,2013-03-12 21:09:00,
2013-03-12 14:15:00,69.4,42.8,30.03,SSW,202,4.0,4.0,38,0.00,,,0.00,VWS V14.01,2013-03-12 21:15:00,
2013-03-12 14:20:00,71.1,43.5,30.00,South,180,2.7,3.6,37,0.00,,,0.00,VWS V14.01,2013-03-12 21:20:00,
2013-03-12 14:25:00,71.8,43.4,30.00,SSE,158,3.1,3.1,36,0.00,,,0.00,VWS V14.01,2013-03-12 21:25:00,
2013-03-12 14:30:00,72.5,43.3,30.00,SSW,202,2.7,4.0,35,0.00,,,0.00,VWS V14.01,2013-03-12 21:30:00,
2013-03-12 14:35:00,72.5,42.6,30.00,SSW,202,4.0,5.4,34,0.00,,,0.00,VWS V14.01,2013-03-12 21:35:00,
2013-03-12 14:41:00,72.0,42.8,30.00,WSW,248,2.2,4.0,35,0.00,,,0.00,VWS V14.01,2013-03-12 21:41:00,
2013-03-12 14:46:00,72.7,42.7,30.00,SSE,158,2.2,4.0,34,0.00,,,0.00,VWS V14.01,2013-03-12 21:46:00,
2013-03-12 14:52:00,73.4,43.3,30.00,SSE,158,2.7,2.7,34,0.00,,,0.00,VWS V14.01,2013-03-12 21:52:00,
2013-03-12 14:57:00,73.4,43.3,30.00,SSW,202,4.0,4.0,34,0.00,,,0.00,VWS V14.01,2013-03-12 21:57:00,
2013-03-12 15:02:00,74.3,43.4,30.00,SSW,202,2.7,2.7,33,0.00,,,0.00,VWS V14.01,2013-03-12 22:02:00,
2013-03-12 15:07:00,73.9,43.0,30.00,SSW,202,2.2,3.1,33,0.00,,,0.00,VWS V14.01,2013-03-12 22:07:00,
2013-03-12 15:13:00,71.8,41.9,30.00,NNW,338,2.2,4.0,34,0.00,,,0.00,VWS V14.01,2013-03-12 22:13:00,
2013-03-12 15:18:00,70.2,41.3,30.00,SW,225,3.6,3.6,35,0.00,,,0.00,VWS V14.01,2013-03-12 22:18:00,
2013-03-12 15:23:00,68.4,40.4,30.00,WSW,248,2.7,4.0,36,0.00,,,0.00,VWS V14.01,2013-03-12 22:23:00,
2013-03-12 15:28:00,67.8,40.6,30.00,West,270,2.7,3.1,37,0.00,,,0.00,VWS V14.01,2013-03-12 22:28:00,
2013-03-12 15:33:00,66.6,40.2,30.00,WSW,248,3.6,4.9,38,0.00,,,0.00,VWS V14.01,2013-03-12 22:33:00,
2013-03-12 15:38:00,65.7,40.0,30.00,ESE,112,0.0,3.6,39,0.00,,,0.00,VWS V14.01,2013-03-12 22:38:00,
2013-03-12 15:43:00,65.1,40.2,30.00,SSW,202,0.0,3.1,40,0.00,,,0.00,VWS V14.01,2013-03-12 22:43:00,
2013-03-12 15:49:00,64.2,40.7,30.00,SSW,202,3.6,6.3,42,0.00,,,0.00,VWS V14.01,2013-03-12 22:49:00,
2013-03-12 15:54:00,63.3,40.5,30.00,SSW,202,3.1,6.7,43,0.00,,,0.00,VWS V14.01,2013-03-12 22:54:00,
2013-03-12 15:59:00,61.9,40.9,30.00,SSW,202,8.1,8.1,46,0.00,,,0.00,VWS V14.01,2013-03-12 22:59:00,
2013-03-12 16:04:00,61.5,41.1,30.00,SSW,202,3.1,3.1,47,0.00,,,0.00,VWS V14.01,2013-03-12 23:04:00,
2013-03-12 16:09:00,61.5,41.1,30.00,WSW,248,2.7,3.1,47,0.00,,,0.00,VWS V14.01,2013-03-12 23:09:00,
2013-03-12 16:14:00,61.5,41.7,30.00,SSW,202,3.1,3.6,48,0.00,,,0.00,VWS V14.01,2013-03-12 23:14:00,
2013-03-12 16:19:00,62.2,42.3,30.00,WSW,248,4.0,4.0,48,0.00,,,0.00,VWS V14.01,2013-03-12 23:19:00,
2013-03-12 16:25:00,63.7,42.5,30.00,WNW,292,2.7,4.9,46,0.00,,,0.00,VWS V14.01,2013-03-12 23:25:00,
2013-03-12 16:30:00,64.8,42.4,30.00,SSW,202,2.7,3.1,44,0.00,,,0.00,VWS V14.01,2013-03-12 23:30:00,
2013-03-12 16:35:00,65.7,42.6,30.00,NNW,338,3.1,4.5,43,0.00,,,0.00,VWS V14.01,2013-03-12 23:35:00,
2013-03-12 16:41:00,66.2,41.8,30.00,West,270,3.6,7.6,41,0.00,,,0.00,VWS V14.01,2013-03-12 23:41:00,
2013-03-12 16:47:00,66.0,41.0,30.00,SSW,202,3.6,6.3,40,0.00,,,0.00,VWS V14.01,2013-03-12 23:47:00,
2013-03-12 16:53:00,65.5,41.2,30.00,SSE,158,6.3,8.1,41,0.00,,,0.00,VWS V14.01,2013-03-12 23:53:00,
2013-03-12 16:58:00,63.3,40.5,30.00,SSW,202,7.2,8.1,43,0.00,,,0.00,VWS V14.01,2013-03-12 23:58:00,
2013-03-12 17:03:00,62.6,40.4,30.00,SSE,158,4.9,8.7,44,0.00,,,0.00,VWS V14.01,2013-03-13 00:03:00,
2013-03-12 17:08:00,61.5,40.6,30.00,SSW,202,5.4,8.3,46,0.00,,,0.00,VWS V14.01,2013-03-13 00:08:00,
2013-03-12 17:13:00,61.3,41.0,30.00,WSW,248,2.7,4.9,47,0.00,,,0.00,VWS V14.01,2013-03-13 00:13:00,
2013-03-12 17:19:00,61.3,41.0,30.00,WSW,248,7.6,8.3,47,0.00,,,0.00,VWS V14.01,2013-03-13 00:19:00,
2013-03-12 17:24:00,61.2,40.8,30.00,South,180,7.6,7.6,47,0.00,,,0.00,VWS V14.01,2013-03-13 00:24:00,
2013-03-12 17:29:00,61.3,41.5,30.00,SSE,158,2.7,5.8,48,0.00,,,0.00,VWS V14.01,2013-03-13 00:29:00,
2013-03-12 17:34:00,61.5,41.1,30.00,SSW,202,3.1,3.6,47,0.00,,,0.00,VWS V14.01,2013-03-13 00:34:00,
2013-03-12 17:40:00,61.7,41.3,30.00,South,180,6.3,6.3,47,0.00,,,0.00,VWS V14.01,2013-03-13 00:40:00,
2013-03-12 17:45:00,61.5,41.1,30.00,SSE,158,5.8,6.7,47,0.00,,,0.00,VWS V14.01,2013-03-13 00:45:00,
2013-03-12 17:50:00,61.7,41.3,29.97,WSW,248,2.7,2.7,47,0.00,,,0.00,VWS V14.01,2013-03-13 00:50:00,
2013-03-12 17:55:00,61.9,41.5,29.97,SSW,202,3.6,6.3,47,0.00,,,0.00,VWS V14.01,2013-03-13 00:55:00,
2013-03-12 18:01:00,62.1,41.6,29.97,SSW,202,3.6,3.6,47,0.00,,,0.00,VWS V14.01,2013-03-13 01:01:00,
2013-03-12 18:06:00,62.4,41.4,30.00,SSW,202,3.1,4.0,46,0.00,,,0.00,VWS V14.01,2013-03-13 01:06:00,
2013-03-12 18:11:00,62.6,41.5,30.00,ESE,112,0.0,2.7,46,0.00,,,0.00,VWS V14.01,2013-03-13 01:11:00,
2013-03-12 18:16:00,62.6,41.5,30.00,WNW,292,0.0,3.1,46,0.00,,,0.00,VWS V14.01,2013-03-13 01:16:00,
2013-03-12 18:21:00,62.2,41.8,30.00,SSE,158,2.7,5.4,47,0.00,,,0.00,VWS V14.01,2013-03-13 01:21:00,
2013-03-12 18:27:00,62.2,41.8,30.00,West,270,0.0,0.0,47,0.00,,,0.00,VWS V14.01,2013-03-13 01:27:00,
2013-03-12 18:32:00,62.1,41.6,30.00,SSW,202,0.0,3.1,47,0.00,,,0.00,VWS V14.01,2013-03-13 01:32:00,
2013-03-12 18:37:00,62.1,41.6,30.00,SSW,202,2.2,3.6,47,0.00,,,0.00,VWS V14.01,2013-03-13 01:37:00,
2013-03-12 18:43:00,61.9,41.5,30.00,SSE,158,3.6,3.6,47,0.00,,,0.00,VWS V14.01,2013-03-13 01:43:00,
2013-03-12 18:48:00,61.5,41.7,30.00,SSE,158,2.2,4.0,48,0.00,,,0.00,VWS V14.01,2013-03-13 01:48:00,
2013-03-12 18:53:00,61.3,41.5,30.00,WNW,292,2.2,3.6,48,0.00,,,0.00,VWS V14.01,2013-03-13 01:53:00,
2013-03-12 18:59:00,60.4,41.2,30.00,South,180,0.0,0.0,49,0.00,,,0.00,VWS V14.01,2013-03-13 01:59:00,
2013-03-12 19:04:00,59.7,41.1,29.97,South,180,5.8,5.8,50,0.00,,,0.00,VWS V14.01,2013-03-13 02:04:00,
2013-03-12 19:09:00,59.2,41.1,29.97,SSE,158,7.2,8.3,51,0.00,,,0.00,VWS V14.01,2013-03-13 02:09:00,
2013-03-12 19:14:00,58.5,41.4,29.97,West,270,3.6,5.8,53,0.00,,,0.00,VWS V14.01,2013-03-13 02:14:00,
2013-03-12 19:20:00,57.9,41.9,29.97,South,180,3.6,4.0,55,0.00,,,0.00,VWS V14.01,2013-03-13 02:20:00,
2013-03-12 19:25:00,57.4,41.8,29.97,SSW,202,4.0,4.9,56,0.00,,,0.00,VWS V14.01,2013-03-13 02:25:00,
2013-03-12 19:30:00,57.6,42.5,29.97,SSW,202,2.7,5.8,57,0.00,,,0.00,VWS V14.01,2013-03-13 02:30:00,
2013-03-12 19:35:00,57.6,42.5,29.97,SSW,202,5.8,8.3,57,0.00,,,0.00,VWS V14.01,2013-03-13 02:35:00,
2013-03-12 19:42:00,56.5,42.3,29.97,SSW,202,7.6,7.6,59,0.00,,,0.00,VWS V14.01,2013-03-13 02:42:00,
2013-03-12 19:47:00,55.8,43.0,30.00,SSE,158,6.7,8.1,62,0.00,,,0.00,VWS V14.01,2013-03-13 02:47:00,
2013-03-12 19:53:00,54.9,43.3,30.00,SSW,202,5.4,8.3,65,0.00,,,0.00,VWS V14.01,2013-03-13 02:53:00,
2013-03-12 19:58:00,54.3,43.6,30.00,South,180,11.0,11.0,67,0.00,,,0.00,VWS V14.01,2013-03-13 02:58:00,
2013-03-12 20:03:00,53.4,43.5,30.00,SSW,202,5.8,8.1,69,0.00,,,0.00,VWS V14.01,2013-03-13 03:03:00,
2013-03-12 20:08:00,53.1,43.5,30.00,SSW,202,4.9,4.9,70,0.00,,,0.00,VWS V14.01,2013-03-13 03:08:00,
2013-03-12 20:13:00,52.5,44.1,30.00,SSW,202,6.3,6.3,73,0.00,,,0.00,VWS V14.01,2013-03-13 03:13:00,
2013-03-12 20:19:00,52.5,44.5,30.00,SSW,202,5.4,8.1,74,0.00,,,0.00,VWS V14.01,2013-03-13 03:19:00,
2013-03-12 20:24:00,52.3,44.7,30.00,SE,135,8.3,8.7,75,0.00,,,0.00,VWS V14.01,2013-03-13 03:24:00,
2013-03-12 20:29:00,52.0,44.3,30.00,South,180,5.4,8.7,75,0.00,,,0.00,VWS V14.01,2013-03-13 03:29:00,
2013-03-12 20:34:00,51.8,44.5,30.00,South,180,5.4,7.6,76,0.00,,,0.00,VWS V14.01,2013-03-13 03:34:00,
2013-03-12 20:39:00,51.6,44.7,30.00,SSW,202,7.6,11.9,77,0.00,,,0.00,VWS V14.01,2013-03-13 03:39:00,
2013-03-12 20:45:00,51.4,44.8,30.00,SSW,202,8.3,8.7,78,0.00,,,0.00,VWS V14.01,2013-03-13 03:45:00,
2013-03-12 20:57:00,51.6,45.0,30.00,SSE,158,8.1,8.7,78,0.00,,,0.00,VWS V14.01,2013-03-13 03:57:00,
2013-03-12 21:00:00,51.6,45.0,30.00,SSE,158,10.5,11.0,78,0.00,,,0.00,VWS V14.01,2013-03-13 04:00:00,
2013-03-12 21:01:00,51.6,45.0,30.00,SSW,202,9.2,10.5,78,0.00,,,0.00,VWS V14.01,2013-03-13 04:01:00,
2013-03-12 21:02:00,51.6,45.0,30.00,South,180,4.9,10.1,78,0.00,,,0.00,VWS V14.01,2013-03-13 04:02:00,
2013-03-12 21:04:00,51.8,44.8,30.00,South,180,8.7,8.7,77,0.00,,,0.00,VWS V14.01,2013-03-13 04:04:00,
2013-03-12 21:09:00,51.8,44.8,30.00,SSW,202,6.3,7.6,77,0.00,,,0.00,VWS V14.01,2013-03-13 04:09:00,
2013-03-12 21:14:00,52.0,45.0,30.00,South,180,4.9,5.4,77,0.00,,,0.00,VWS V14.01,2013-03-13 04:14:00,
2013-03-12 21:20:00,52.2,45.2,30.00,West,270,2.7,5.4,77,0.00,,,0.00,VWS V14.01,2013-03-13 04:20:00,
2013-03-12 21:25:00,52.3,45.3,30.00,WSW,248,3.1,4.0,77,0.00,,,0.00,VWS V14.01,2013-03-13 04:25:00,
2013-03-12 21:31:00,52.7,45.7,30.00,SW,225,0.0,2.7,77,0.00,,,0.00,VWS V14.01,2013-03-13 04:31:00,
2013-03-12 21:36:00,52.9,45.5,30.00,SSW,202,0.0,0.0,76,0.00,,,0.00,VWS V14.01,2013-03-13 04:36:00,
2013-03-12 21:41:00,53.1,45.7,30.00,SSW,202,0.0,0.0,76,0.00,,,0.00,VWS V14.01,2013-03-13 04:41:00,
2013-03-12 21:46:00,53.2,45.9,30.00,SW,225,0.0,0.0,76,0.00,,,0.00,VWS V14.01,2013-03-13 04:46:00,
2013-03-12 21:52:00,53.2,45.5,30.00,SSW,202,0.0,0.0,75,0.00,,,0.00,VWS V14.01,2013-03-13 04:52:00,
2013-03-12 21:57:00,53.4,45.7,30.00,SW,225,0.0,0.0,75,0.00,,,0.00,VWS V14.01,2013-03-13 04:57:00,
2013-03-12 22:03:00,53.6,45.5,30.00,SSW,202,0.0,0.0,74,0.00,,,0.00,VWS V14.01,2013-03-13 05:03:00,
2013-03-12 22:08:00,53.8,45.3,30.00,SSW,202,0.0,0.0,73,0.00,,,0.00,VWS V14.01,2013-03-13 05:08:00,
2013-03-12 22:13:00,53.8,45.3,30.00,SW,225,0.0,0.0,73,0.00,,,0.00,VWS V14.01,2013-03-13 05:13:00,
2013-03-12 22:19:00,54.0,45.2,30.00,SSW,202,0.0,0.0,72,0.00,,,0.00,VWS V14.01,2013-03-13 05:19:00,
2013-03-12 22:24:00,54.1,45.0,30.00,SSW,202,2.2,2.2,71,0.00,,,0.00,VWS V14.01,2013-03-13 05:24:00,
2013-03-12 22:29:00,54.1,45.0,30.00,SSW,202,0.0,0.0,71,0.00,,,0.00,VWS V14.01,2013-03-13 05:29:00,
2013-03-12 22:34:00,54.1,44.6,30.00,SSE,158,0.0,0.0,70,0.00,,,0.00,VWS V14.01,2013-03-13 05:34:00,
2013-03-12 22:40:00,54.1,44.6,30.00,SSW,202,0.0,0.0,70,0.00,,,0.00,VWS V14.01,2013-03-13 05:40:00,
2013-03-12 22:45:00,54.0,44.4,30.00,SSW,202,0.0,0.0,70,0.00,,,0.00,VWS V14.01,2013-03-13 05:45:00,
2013-03-12 22:51:00,54.1,44.6,30.00,SSE,158,0.0,0.0,70,0.00,,,0.00,VWS V14.01,2013-03-13 05:51:00,
2013-03-12 22:57:00,53.8,44.2,30.00,South,180,0.0,0.0,70,0.00,,,0.00,VWS V14.01,2013-03-13 05:57:00,
2013-03-12 23:03:00,53.6,44.1,30.00,SSW,202,0.0,0.0,70,0.00,,,0.00,VWS V14.01,2013-03-13 06:03:00,
2013-03-12 23:08:00,53.4,43.9,30.00,SSW,202,2.7,4.0,70,0.00,,,0.00,VWS V14.01,2013-03-13 06:08:00,
2013-03-12 23:13:00,53.2,43.7,30.00,SSW,202,2.7,3.1,70,0.00,,,0.00,VWS V14.01,2013-03-13 06:13:00,
2013-03-12 23:19:00,53.1,43.5,30.03,SSW,202,3.1,3.1,70,0.00,,,0.00,VWS V14.01,2013-03-13 06:19:00,
2013-03-12 23:24:00,52.7,43.6,30.03,SW,225,2.7,2.7,71,0.00,,,0.00,VWS V14.01,2013-03-13 06:24:00,
2013-03-12 23:29:00,52.5,43.8,30.03,WSW,248,0.0,2.7,72,0.00,,,0.00,VWS V14.01,2013-03-13 06:29:00,
2013-03-12 23:34:00,52.3,43.6,30.03,SSW,202,2.7,2.7,72,0.00,,,0.00,VWS V14.01,2013-03-13 06:34:00,
2013-03-12 23:39:00,52.3,44.0,30.03,SSW,202,2.7,2.7,73,0.00,,,0.00,VWS V14.01,2013-03-13 06:39:00,
2013-03-12 23:44:00,52.3,44.0,30.03,SW,225,0.0,0.0,73,0.00,,,0.00,VWS V14.01,2013-03-13 06:44:00,
2013-03-12 23:50:00,52.3,44.0,30.03,South,180,2.7,2.7,73,0.00,,,0.00,VWS V14.01,2013-03-13 06:50:00,
2013-03-12 23:55:00,52.2,43.8,30.03,WSW,248,3.1,4.0,73,0.00,,,0.00,VWS V14.01,2013-03-13 06:55:00,